Em Athens — V7US8 — position and weather

sailwx.info

Track history (hours):
 
Tides and Currents Weather Stations Pressure Air Temp Water Temp Dewpoint Dewpoint Depression Visibility Wind Speed Wind Dir Waves Ship Positions

Em Athens

Last reported at 2017-Mar-24 05:33 UTC. Time now 2017-Mar-24 06:14 UTC.
Position N 33°46' E 032°45'.

Length 207 m; draft 9.6 m.

Type: Ship (hazmat cat A). MMSI: 538004019.

Date/timePositionNaut miles runAvg speedWind from/ knotsBaromVisibWave heightAir tempDewpointWater temp
2017-Mar-24 05:33N 33°46' E 032°45'  
2017-Mar-19 15:21N 37°18' E 016°50'2814.1
2017-Mar-19 13:21N 37°31' E 016°19'1213.9
2017-Mar-19 12:28N 37°37' E 016°06'1314.1
2017-Mar-19 11:33N 37°44' E 015°52'1514.5
2017-Mar-19 10:33N 37°52' E 015°36'1514.8
2017-Mar-19 09:33N 38°06' E 015°34'1515.5
2017-Mar-19 08:34N 38°20' E 015°43'1211.5
2017-Mar-19 07:33N 38°27' E 015°54'1 0.6
2017-Mar-19 06:28N 38°28' E 015°55'0 0.0
2017-Mar-19 05:28N 38°28' E 015°55'0 0.0
2017-Mar-19 04:31N 38°28' E 015°55'0 0.0
2017-Mar-19 03:10N 38°28' E 015°55'0 0.0
2017-Mar-19 02:31N 38°28' E 015°55'0 0.0
2017-Mar-19 01:31N 38°28' E 015°55'0 0.0
2017-Mar-19 00:31N 38°28' E 015°55'0 0.0
2017-Mar-18 23:31N 38°28' E 015°55'0 0.0
2017-Mar-18 22:31N 38°28' E 015°55'0 0.0
2017-Mar-18 21:31N 38°28' E 015°55'0 0.0
2017-Mar-18 20:31N 38°28' E 015°55'0 0.0
2017-Mar-18 19:31N 38°28' E 015°55'0 0.0
2017-Mar-18 18:31N 38°28' E 015°55'0 0.0
2017-Mar-18 17:19N 38°28' E 015°55'0 0.0
2017-Mar-18 15:07N 38°28' E 015°55'0 0.1
2017-Mar-18 14:28N 38°28' E 015°55'0 0.0
2017-Mar-18 13:31N 38°28' E 015°55'1 0.8
2017-Mar-18 12:33N 38°27' E 015°54'3 2.5
2017-Mar-18 11:33N 38°27' E 015°51'2 2.0
2017-Mar-18 10:33N 38°26' E 015°49'1 1.0
2017-Mar-18 09:33N 38°27' E 015°48'9 9.0
2017-Mar-18 08:33N 38°19' E 015°42'1515.1
2017-Mar-18 07:34N 38°05' E 015°36'1514.8
2017-Mar-18 06:33N 37°52' E 015°45'39012.6
2017-Mar-16 23:33N 44°13' E 013°56'1615.9
2017-Mar-16 22:33N 44°26' E 013°43'1615.9
2017-Mar-16 21:33N 44°40' E 013°31'1615.7
2017-Mar-16 20:34N 44°53' E 013°19'1615.6
2017-Mar-16 19:33N 45°06' E 013°07'1515.4
2017-Mar-16 18:33N 45°20' E 013°01'1515.4
2017-Mar-16 17:33N 45°32' E 013°16'1514.7
2017-Mar-16 16:33N 45°37' E 013°36'7 6.2
2017-Mar-16 15:26N 45°33' E 013°44'0 0.0
2017-Mar-16 14:32N 45°33' E 013°44'0 0.0
2017-Mar-16 13:32N 45°33' E 013°44'0 0.0
2017-Mar-16 12:23N 45°33' E 013°44'0 0.0
2017-Mar-16 11:32N 45°33' E 013°44'0 0.0
2017-Mar-16 10:29N 45°33' E 013°44'0 0.0
2017-Mar-16 09:32N 45°33' E 013°44'0 0.1
2017-Mar-16 08:32N 45°33' E 013°44'0 0.1
2017-Mar-16 07:29N 45°33' E 013°44'0 0.0
2017-Mar-16 06:32N 45°33' E 013°44'0 0.0
2017-Mar-16 05:32N 45°33' E 013°44'0 0.0
2017-Mar-16 04:29N 45°33' E 013°44'0 0.0
2017-Mar-16 03:29N 45°33' E 013°44'0 0.0
2017-Mar-16 02:32N 45°33' E 013°44'0 0.0
2017-Mar-16 01:32N 45°33' E 013°44'0 0.0
2017-Mar-16 00:29N 45°33' E 013°44'3 3.3
2017-Mar-15 23:33N 45°34' E 013°40'5 5.1
2017-Mar-15 22:33N 45°38' E 013°45'1 0.4
2017-Mar-15 21:18N 45°38' E 013°46'0 0.0
2017-Mar-15 20:33N 45°38' E 013°46'0 0.0
2017-Mar-15 19:33N 45°38' E 013°46'0 0.0
2017-Mar-15 18:33N 45°38' E 013°46'0 0.0
2017-Mar-15 17:33N 45°38' E 013°46'0 0.0
2017-Mar-15 16:30N 45°38' E 013°46'0 0.0
2017-Mar-15 15:33N 45°38' E 013°46'0 0.0
2017-Mar-15 14:33N 45°38' E 013°46'0 0.0
2017-Mar-15 13:30N 45°38' E 013°46'0 0.0
2017-Mar-15 12:33N 45°38' E 013°46'0 0.0
2017-Mar-15 11:33N 45°38' E 013°46'0 0.0
2017-Mar-15 10:33N 45°38' E 013°46'0 0.0
2017-Mar-15 09:33N 45°38' E 013°46'0 0.0
2017-Mar-15 08:33N 45°38' E 013°46'0 0.0
2017-Mar-15 07:33N 45°38' E 013°46'0 0.0
2017-Mar-15 06:33N 45°38' E 013°46'0 0.0
2017-Mar-15 05:33N 45°38' E 013°46'0 0.0
2017-Mar-15 04:33N 45°38' E 013°46'0 0.0
2017-Mar-15 03:33N 45°38' E 013°46'0 0.0
2017-Mar-15 02:33N 45°38' E 013°46'0 0.0
2017-Mar-15 01:33N 45°38' E 013°46'0 0.0
2017-Mar-15 00:33N 45°38' E 013°46'0 0.0
2017-Mar-14 23:33N 45°38' E 013°46'0 0.1
2017-Mar-14 22:33N 45°38' E 013°45'7 6.9
2017-Mar-14 21:34N 45°37' E 013°36'1818.2
2017-Mar-14 20:33N 45°25' E 013°16'1818.5
2017-Mar-14 19:33N 45°07' E 013°18'2020.1
2017-Mar-14 18:33N 44°49' E 013°30'2020.1
2017-Mar-14 17:33N 44°31' E 013°45'2020.0
2017-Mar-14 16:33N 44°14' E 013°58'1817.7
2017-Mar-14 15:33N 43°56' E 013°54'2019.0
2017-Mar-14 14:29N 43°41' E 013°36'6 5.6
2017-Mar-14 13:28N 43°37' E 013°30'  
Track history (hours):
 
Tides and Currents Weather Stations Pressure Air Temp Water Temp Dewpoint Dewpoint Depression Visibility Wind Speed Wind Dir Waves Ship Positions

Em Athens

Last reported at 2017-Mar-24 05:33 UTC. Time now 2017-Mar-24 06:14 UTC.
Position N 33°46' E 032°45'.

Length 207 m; draft 9.6 m.

Type: Ship (hazmat cat A). MMSI: 538004019.

Date/timePositionNaut miles runAvg speedWind from/ knotsBaromVisibWave heightAir tempDewpointWater temp
2017-Mar-24 05:33N 33°46' E 032°45'  
2017-Mar-19 15:21N 37°18' E 016°50'2814.1
2017-Mar-19 13:21N 37°31' E 016°19'1213.9
2017-Mar-19 12:28N 37°37' E 016°06'1314.1
2017-Mar-19 11:33N 37°44' E 015°52'1514.5
2017-Mar-19 10:33N 37°52' E 015°36'1514.8
2017-Mar-19 09:33N 38°06' E 015°34'1515.5
2017-Mar-19 08:34N 38°20' E 015°43'1211.5
2017-Mar-19 07:33N 38°27' E 015°54'1 0.6
2017-Mar-19 06:28N 38°28' E 015°55'0 0.0
2017-Mar-19 05:28N 38°28' E 015°55'0 0.0
2017-Mar-19 04:31N 38°28' E 015°55'0 0.0
2017-Mar-19 03:10N 38°28' E 015°55'0 0.0
2017-Mar-19 02:31N 38°28' E 015°55'0 0.0
2017-Mar-19 01:31N 38°28' E 015°55'0 0.0
2017-Mar-19 00:31N 38°28' E 015°55'0 0.0
2017-Mar-18 23:31N 38°28' E 015°55'0 0.0
2017-Mar-18 22:31N 38°28' E 015°55'0 0.0
2017-Mar-18 21:31N 38°28' E 015°55'0 0.0
2017-Mar-18 20:31N 38°28' E 015°55'0 0.0
2017-Mar-18 19:31N 38°28' E 015°55'0 0.0
2017-Mar-18 18:31N 38°28' E 015°55'0 0.0
2017-Mar-18 17:19N 38°28' E 015°55'0 0.0
2017-Mar-18 15:07N 38°28' E 015°55'0 0.1
2017-Mar-18 14:28N 38°28' E 015°55'0 0.0
2017-Mar-18 13:31N 38°28' E 015°55'1 0.8
2017-Mar-18 12:33N 38°27' E 015°54'3 2.5
2017-Mar-18 11:33N 38°27' E 015°51'2 2.0
2017-Mar-18 10:33N 38°26' E 015°49'1 1.0
2017-Mar-18 09:33N 38°27' E 015°48'9 9.0
2017-Mar-18 08:33N 38°19' E 015°42'1515.1
2017-Mar-18 07:34N 38°05' E 015°36'1514.8
2017-Mar-18 06:33N 37°52' E 015°45'39012.6
2017-Mar-16 23:33N 44°13' E 013°56'1615.9
2017-Mar-16 22:33N 44°26' E 013°43'1615.9
2017-Mar-16 21:33N 44°40' E 013°31'1615.7
2017-Mar-16 20:34N 44°53' E 013°19'1615.6
2017-Mar-16 19:33N 45°06' E 013°07'1515.4
2017-Mar-16 18:33N 45°20' E 013°01'1515.4
2017-Mar-16 17:33N 45°32' E 013°16'1514.7
2017-Mar-16 16:33N 45°37' E 013°36'7 6.2
2017-Mar-16 15:26N 45°33' E 013°44'0 0.0
2017-Mar-16 14:32N 45°33' E 013°44'0 0.0
2017-Mar-16 13:32N 45°33' E 013°44'0 0.0
2017-Mar-16 12:23N 45°33' E 013°44'0 0.0
2017-Mar-16 11:32N 45°33' E 013°44'0 0.0
2017-Mar-16 10:29N 45°33' E 013°44'0 0.0
2017-Mar-16 09:32N 45°33' E 013°44'0 0.1
2017-Mar-16 08:32N 45°33' E 013°44'0 0.1
2017-Mar-16 07:29N 45°33' E 013°44'0 0.0
2017-Mar-16 06:32N 45°33' E 013°44'0 0.0
2017-Mar-16 05:32N 45°33' E 013°44'0 0.0
2017-Mar-16 04:29N 45°33' E 013°44'0 0.0
2017-Mar-16 03:29N 45°33' E 013°44'0 0.0
2017-Mar-16 02:32N 45°33' E 013°44'0 0.0
2017-Mar-16 01:32N 45°33' E 013°44'0 0.0
2017-Mar-16 00:29N 45°33' E 013°44'3 3.3
2017-Mar-15 23:33N 45°34' E 013°40'5 5.1
2017-Mar-15 22:33N 45°38' E 013°45'1 0.4
2017-Mar-15 21:18N 45°38' E 013°46'0 0.0
2017-Mar-15 20:33N 45°38' E 013°46'0 0.0
2017-Mar-15 19:33N 45°38' E 013°46'0 0.0
2017-Mar-15 18:33N 45°38' E 013°46'0 0.0
2017-Mar-15 17:33N 45°38' E 013°46'0 0.0
2017-Mar-15 16:30N 45°38' E 013°46'0 0.0
2017-Mar-15 15:33N 45°38' E 013°46'0 0.0
2017-Mar-15 14:33N 45°38' E 013°46'0 0.0
2017-Mar-15 13:30N 45°38' E 013°46'0 0.0
2017-Mar-15 12:33N 45°38' E 013°46'0 0.0
2017-Mar-15 11:33N 45°38' E 013°46'0 0.0
2017-Mar-15 10:33N 45°38' E 013°46'0 0.0
2017-Mar-15 09:33N 45°38' E 013°46'0 0.0
2017-Mar-15 08:33N 45°38' E 013°46'0 0.0
2017-Mar-15 07:33N 45°38' E 013°46'0 0.0
2017-Mar-15 06:33N 45°38' E 013°46'0 0.0
2017-Mar-15 05:33N 45°38' E 013°46'0 0.0
2017-Mar-15 04:33N 45°38' E 013°46'0 0.0
2017-Mar-15 03:33N 45°38' E 013°46'0 0.0
2017-Mar-15 02:33N 45°38' E 013°46'0 0.0
2017-Mar-15 01:33N 45°38' E 013°46'0 0.0
2017-Mar-15 00:33N 45°38' E 013°46'0 0.0
2017-Mar-14 23:33N 45°38' E 013°46'0 0.1
2017-Mar-14 22:33N 45°38' E 013°45'7 6.9
2017-Mar-14 21:34N 45°37' E 013°36'1818.2
2017-Mar-14 20:33N 45°25' E 013°16'1818.5
2017-Mar-14 19:33N 45°07' E 013°18'2020.1
2017-Mar-14 18:33N 44°49' E 013°30'2020.1
2017-Mar-14 17:33N 44°31' E 013°45'2020.0
2017-Mar-14 16:33N 44°14' E 013°58'1817.7
2017-Mar-14 15:33N 43°56' E 013°54'2019.0
2017-Mar-14 14:29N 43°41' E 013°36'6 5.6
2017-Mar-14 13:28N 43°37' E 013°30'  

Dump ship's entire track history